Delta Virtual Airport Information Service

Richmond Airport

ICAO: KRIC Country: United States
Latitude: 37.5052 Longitude: -77.3196
Latest Arrival : DAL1198 (1A) (KATL-KRIC) Latest Departure : UPS1220 (1C) (KRIC-KIAD)


WX CaptureLIVE
Data provided by noaa.gov | Fetched at 01:47:30

METAR : KRIC 060554Z 21006KT 10SM BKN240 24/21 A3001 RMK AO2 SLP165 T02440206 10278 20244 58001

TAF : KRIC 060553Z 0606/0706 20005KT P6SM BKN250 FM061300 21006KT P6SM SCT250 FM061700 19010KT P6SM SCT050 FM070000 18005KT P6SM BKN100 FM070300 17004KT P6SM SCT070


Runway Data for KRIC
Data provided by openaviationdata.com

Runway ID Mag Var Hdg Length Elevation Surface ILS Freq ILS Id ILS Slope
2 -9 23° 6614 ft 167 ft Asphalt 110.9 IEZD 3
7 -9 67° 5322 ft 167 ft Asphalt -- -- --
16 -9 157° 9007 ft 167 ft Asphalt 110.7 IRGJ 3
20 -9 203° 6614 ft 167 ft Asphalt -- -- --
25 -9 247° 5322 ft 167 ft Asphalt -- -- --
34 -9 337° 9007 ft 167 ft Asphalt 110.7 IBNE 3

Richmond Airport, United States
Use only for reference purposes



Not for navigational purposes.